createdAt,value
2023-02-04T00:00:46.377Z,18.70
2023-02-04T00:03:19.374Z,31.00
2023-02-04T00:05:52.436Z,16.75
2023-02-04T00:08:19.721Z,25.60
2023-02-04T00:10:54.321Z,26.77
2023-02-04T00:13:21.054Z,23.13
2023-02-04T00:15:54.425Z,22.92
2023-02-04T00:18:22.155Z,22.02
2023-02-04T00:21:02.368Z,15.05
2023-02-04T00:23:35.511Z,17.13
2023-02-04T00:26:08.460Z,20.75
2023-02-04T00:28:35.228Z,19.70
2023-02-04T00:31:08.435Z,18.75
2023-02-04T00:33:35.234Z,21.67
2023-02-04T00:36:08.388Z,20.52
2023-02-04T00:38:41.626Z,25.33
2023-02-04T00:41:08.332Z,24.80
2023-02-04T00:43:41.353Z,19.15
2023-02-04T00:46:08.107Z,26.77
2023-02-04T00:48:42.602Z,20.90
2023-02-04T00:51:09.229Z,20.58
2023-02-04T00:53:42.420Z,21.08
2023-02-04T00:56:09.072Z,20.58
2023-02-04T00:58:42.428Z,22.17
2023-02-04T01:01:09.085Z,21.20
2023-02-04T01:03:42.364Z,17.80
2023-02-04T01:06:09.041Z,25.45
2023-02-04T01:08:42.425Z,21.92
2023-02-04T01:11:09.046Z,19.48
2023-02-04T01:13:35.666Z,18.15
2023-02-04T01:16:08.497Z,18.00
2023-02-04T01:18:35.425Z,17.85
2023-02-04T01:21:15.457Z,23.15
2023-02-04T01:23:50.174Z,16.30
2023-02-04T01:26:27.578Z,24.33
2023-02-04T01:28:54.434Z,21.83
2023-02-04T01:31:30.517Z,25.45
2023-02-04T01:34:01.665Z,19.88
2023-02-04T01:36:34.403Z,18.02
2023-02-04T01:39:01.253Z,20.35
2023-02-04T01:41:34.376Z,21.02
2023-02-04T01:44:01.005Z,24.45
2023-02-04T01:46:34.490Z,24.13
2023-02-04T01:49:08.404Z,17.55
2023-02-04T01:51:42.430Z,14.43
2023-02-04T01:54:17.961Z,20.65
2023-02-04T01:56:53.369Z,21.35
2023-02-04T01:59:26.449Z,25.35
2023-02-04T02:01:53.300Z,21.52
2023-02-04T02:04:34.420Z,20.75
2023-02-04T02:07:04.106Z,25.38
2023-02-04T02:09:39.427Z,20.52
2023-02-04T02:12:06.405Z,17.08
2023-02-04T02:14:40.408Z,22.88
2023-02-04T02:17:07.137Z,17.98
2023-02-04T02:19:44.401Z,22.50
2023-02-04T02:22:27.350Z,21.52
2023-02-04T02:25:00.456Z,19.00
2023-02-04T02:27:27.237Z,16.98
2023-02-04T02:29:53.874Z,17.00
2023-02-04T02:32:27.393Z,19.80
2023-02-04T02:35:00.422Z,19.48
2023-02-04T02:37:27.214Z,22.02
2023-02-04T02:40:00.437Z,18.20
2023-02-04T02:42:27.180Z,22.95
2023-02-04T02:45:00.440Z,19.65
2023-02-04T02:47:35.400Z,19.73
2023-02-04T02:50:02.128Z,25.75
2023-02-04T02:52:35.400Z,24.50
2023-02-04T02:55:02.117Z,22.52
2023-02-04T02:57:35.383Z,16.00
2023-02-04T03:00:02.797Z,21.45
2023-02-04T03:02:35.487Z,19.73
2023-02-04T03:05:02.197Z,23.35
2023-02-04T03:07:35.472Z,17.13
2023-02-04T03:10:03.554Z,18.20
2023-02-04T03:12:36.427Z,18.35
2023-02-04T03:15:05.240Z,18.88
2023-02-04T03:17:32.439Z,17.77
2023-02-04T03:20:05.432Z,21.42
2023-02-04T03:22:45.408Z,19.75
2023-02-04T03:25:18.513Z,27.08
2023-02-04T03:27:45.159Z,22.92
2023-02-04T03:30:18.443Z,23.42
2023-02-04T03:32:45.025Z,26.60
2023-02-04T03:35:18.468Z,23.13
2023-02-04T03:37:51.460Z,15.90
2023-02-04T03:40:18.301Z,18.60
2023-02-04T03:42:51.452Z,18.63
2023-02-04T03:45:18.234Z,20.40
2023-02-04T03:47:51.460Z,18.42
2023-02-04T03:50:18.220Z,19.83
2023-02-04T03:52:51.481Z,21.97
2023-02-04T03:55:18.316Z,21.90
2023-02-04T03:57:51.446Z,24.20
2023-02-04T04:00:18.261Z,14.80
2023-02-04T04:02:51.549Z,17.92
2023-02-04T04:05:18.395Z,16.77
2023-02-04T04:07:45.669Z,16.95
2023-02-04T04:10:19.432Z,17.85
2023-02-04T04:12:46.116Z,20.90
2023-02-04T04:15:19.602Z,17.77
2023-02-04T04:17:46.283Z,13.00
2023-02-04T04:20:26.462Z,19.00
2023-02-04T04:22:59.853Z,14.02
2023-02-04T04:25:33.435Z,17.08
2023-02-04T04:28:00.077Z,20.48
2023-02-04T04:30:33.770Z,21.23
2023-02-04T04:33:00.623Z,17.67
2023-02-04T04:35:33.466Z,21.30
2023-02-04T04:38:06.408Z,17.02
2023-02-04T04:40:39.548Z,21.60
2023-02-04T04:43:06.189Z,16.83
2023-02-04T04:45:33.288Z,18.77
2023-02-04T04:48:06.472Z,18.52
2023-02-04T04:50:33.428Z,20.08
2023-02-04T04:53:06.482Z,19.83
2023-02-04T04:55:33.932Z,16.42
2023-02-04T04:58:07.506Z,20.55
2023-02-04T05:00:34.816Z,19.55
2023-02-04T05:03:08.482Z,19.45
2023-02-04T05:05:46.531Z,20.53
2023-02-04T05:08:14.225Z,17.50
2023-02-04T05:10:47.499Z,17.17
2023-02-04T05:13:14.191Z,20.10
2023-02-04T05:15:47.487Z,22.40
2023-02-04T05:18:14.117Z,16.98
2023-02-04T05:20:47.483Z,18.17
2023-02-04T05:23:14.253Z,22.98
2023-02-04T05:25:47.556Z,25.37
2023-02-04T05:28:14.266Z,21.88
2023-02-04T05:30:47.568Z,18.25
2023-02-04T05:33:14.288Z,17.55
2023-02-04T05:35:41.321Z,18.33
2023-02-04T05:38:14.538Z,19.38
2023-02-04T05:40:41.092Z,17.20
2023-02-04T05:43:14.599Z,19.15
2023-02-04T05:45:41.338Z,20.38
2023-02-04T05:48:14.479Z,21.33
2023-02-04T05:50:41.103Z,18.25
2023-02-04T05:53:14.516Z,19.73
2023-02-04T05:55:41.249Z,19.98
2023-02-04T05:58:14.477Z,20.40
2023-02-04T06:00:41.120Z,15.38
2023-02-04T06:03:14.618Z,15.67
2023-02-04T06:05:47.636Z,17.80
2023-02-04T06:08:15.965Z,15.80
2023-02-04T06:10:49.478Z,19.17
2023-02-04T06:13:16.293Z,17.45
2023-02-04T06:15:49.528Z,20.90
2023-02-04T06:18:16.161Z,18.20
2023-02-04T06:20:56.495Z,21.10
2023-02-04T06:23:29.803Z,21.93
2023-02-04T06:26:02.562Z,19.70
2023-02-04T06:28:35.495Z,17.60
2023-02-04T06:31:02.289Z,17.73
2023-02-04T06:33:35.528Z,20.00
2023-02-04T06:36:09.563Z,20.57
2023-02-04T06:38:36.198Z,19.97
2023-02-04T06:41:09.509Z,17.77
2023-02-04T06:43:42.514Z,20.50
2023-02-04T06:46:16.262Z,17.70
2023-02-04T06:48:49.504Z,19.53
2023-02-04T06:51:16.173Z,23.27
2023-02-04T06:53:50.518Z,19.63
2023-02-04T06:56:17.094Z,15.70
2023-02-04T06:58:50.517Z,16.93
2023-02-04T07:01:17.184Z,19.53
2023-02-04T07:03:43.768Z,17.30
2023-02-04T07:06:16.543Z,18.03
2023-02-04T07:08:43.189Z,16.60
2023-02-04T07:11:16.608Z,19.10
2023-02-04T07:13:43.255Z,17.27
2023-02-04T07:16:16.648Z,16.37
2023-02-04T07:18:43.265Z,23.23
2023-02-04T07:21:23.535Z,13.80
2023-02-04T07:23:56.857Z,14.85
2023-02-04T07:26:30.558Z,24.53
2023-02-04T07:28:57.255Z,19.30
2023-02-04T07:31:24.090Z,22.43
2023-02-04T07:33:57.521Z,22.20
2023-02-04T07:36:24.198Z,16.97
2023-02-04T07:38:57.511Z,17.77
2023-02-04T07:41:24.174Z,15.73
2023-02-04T07:43:57.530Z,16.33
2023-02-04T07:46:30.976Z,12.02
2023-02-04T07:49:04.588Z,15.50
2023-02-04T07:51:31.296Z,21.33
2023-02-04T07:54:04.509Z,23.40
2023-02-04T07:56:31.245Z,18.03
2023-02-04T07:59:04.583Z,21.75
2023-02-04T08:01:31.329Z,22.17
2023-02-04T08:03:58.056Z,23.83
2023-02-04T08:06:31.610Z,18.88
2023-02-04T08:08:58.237Z,14.27
2023-02-04T08:11:31.587Z,17.63
2023-02-04T08:13:58.292Z,18.25
2023-02-04T08:16:31.561Z,17.60
2023-02-04T08:18:58.792Z,20.25
2023-02-04T08:21:38.520Z,21.25
2023-02-04T08:24:13.176Z,27.60
2023-02-04T08:26:47.540Z,19.17
2023-02-04T08:29:20.631Z,17.88
2023-02-04T08:31:54.623Z,26.42
2023-02-04T08:34:21.394Z,19.10
2023-02-04T08:36:48.110Z,24.77
2023-02-04T08:39:21.560Z,32.70
2023-02-04T08:41:49.395Z,42.25
2023-02-04T08:44:22.580Z,32.63
2023-02-04T08:46:49.318Z,34.60
2023-02-04T08:49:22.534Z,42.40
2023-02-04T08:51:49.196Z,37.17
2023-02-04T08:54:22.564Z,31.35
2023-02-04T08:56:49.194Z,28.90
2023-02-04T08:59:22.656Z,26.27
2023-02-04T09:01:51.118Z,25.95
2023-02-04T09:04:25.614Z,25.77
2023-02-04T09:06:52.484Z,25.25
2023-02-04T09:09:20.980Z,24.23
2023-02-04T09:11:55.619Z,23.25
2023-02-04T09:14:28.596Z,27.23
2023-02-04T09:17:01.667Z,23.33
2023-02-04T09:19:28.245Z,28.50
2023-02-04T09:22:01.608Z,30.98
2023-02-04T09:24:34.614Z,24.10
2023-02-04T09:27:07.771Z,23.67
2023-02-04T09:29:34.628Z,27.45
2023-02-04T09:32:07.665Z,20.90
2023-02-04T09:34:40.605Z,21.95
2023-02-04T09:37:13.619Z,23.40
2023-02-04T09:39:40.246Z,22.33
2023-02-04T09:42:13.619Z,20.80
2023-02-04T09:44:40.456Z,25.42
2023-02-04T09:47:13.654Z,23.98
2023-02-04T09:49:40.348Z,26.67
2023-02-04T09:52:19.717Z,26.08
2023-02-04T09:54:53.691Z,27.25
2023-02-04T09:57:21.065Z,21.65
2023-02-04T09:59:54.691Z,26.02
2023-02-04T10:02:24.949Z,23.52
2023-02-04T10:05:01.744Z,24.95
2023-02-04T10:07:29.006Z,23.63
2023-02-04T10:10:02.701Z,24.52
2023-02-04T10:12:29.709Z,24.77
2023-02-04T10:15:02.640Z,31.13
2023-02-04T10:17:29.410Z,25.98
2023-02-04T10:20:02.661Z,30.70
2023-02-04T10:22:35.633Z,23.80
2023-02-04T10:25:02.399Z,23.27
2023-02-04T10:27:35.675Z,27.90
2023-02-04T10:30:08.649Z,24.25
2023-02-04T10:32:35.293Z,26.52
2023-02-04T10:35:09.697Z,26.45
2023-02-04T10:37:42.674Z,23.73
2023-02-04T10:40:46.253Z,22.48
2023-02-04T10:43:29.732Z,19.63
2023-02-04T10:45:57.837Z,22.20
2023-02-04T10:48:31.627Z,22.05
2023-02-04T10:50:59.392Z,20.92
2023-02-04T10:53:52.636Z,19.67
2023-02-04T10:56:22.143Z,19.08
2023-02-04T10:58:56.668Z,18.30
2023-02-04T11:01:35.713Z,17.95
2023-02-04T11:04:08.682Z,22.63
2023-02-04T11:06:35.315Z,14.90
2023-02-04T11:09:03.728Z,23.23
2023-02-04T11:11:36.707Z,14.55
2023-02-04T11:14:04.341Z,17.42
2023-02-04T11:16:41.741Z,17.35
2023-02-04T11:19:13.306Z,19.33
2023-02-04T11:21:52.737Z,15.57
2023-02-04T11:24:32.804Z,18.80
2023-02-04T11:27:24.722Z,19.77
2023-02-04T11:29:51.686Z,18.73
2023-02-04T11:32:38.662Z,13.48
2023-02-04T11:35:27.723Z,16.00
2023-02-04T11:38:01.753Z,15.60
2023-02-04T11:40:37.852Z,16.40
2023-02-04T11:43:22.058Z,18.02
2023-02-04T11:45:49.017Z,18.20
2023-02-04T11:48:25.791Z,21.67
2023-02-04T11:51:00.314Z,14.48
2023-02-04T11:53:39.778Z,19.63
2023-02-04T11:56:06.758Z,27.50
2023-02-04T11:58:40.720Z,18.90
2023-02-04T12:01:21.531Z,13.80
2023-02-04T12:03:57.801Z,18.65
2023-02-04T12:06:36.768Z,19.90
2023-02-04T12:09:32.655Z,17.55
2023-02-04T12:12:08.734Z,17.50
2023-02-04T12:14:37.570Z,18.67
2023-02-04T12:17:24.709Z,23.23
2023-02-04T12:19:51.562Z,22.15
2023-02-04T12:22:31.839Z,16.98
2023-02-04T12:25:11.779Z,16.70
2023-02-04T12:27:44.717Z,17.08
2023-02-04T12:30:18.734Z,21.10
2023-02-04T12:32:51.808Z,12.85
2023-02-04T12:35:26.824Z,19.85
2023-02-04T12:37:59.729Z,14.68
2023-02-04T12:40:26.392Z,17.65
2023-02-04T12:43:04.699Z,18.05
2023-02-04T12:45:31.791Z,14.77
2023-02-04T12:48:05.865Z,16.58
2023-02-04T12:50:32.711Z,15.55
2023-02-04T12:53:06.726Z,19.90
2023-02-04T12:55:33.799Z,17.25
2023-02-04T12:58:06.766Z,16.05
2023-02-04T13:00:33.617Z,17.30
2023-02-04T13:03:06.809Z,15.52
2023-02-04T13:05:34.250Z,20.45
2023-02-04T13:08:07.739Z,16.90
2023-02-04T13:10:34.702Z,16.45
2023-02-04T13:13:04.582Z,19.02
2023-02-04T13:15:37.793Z,21.38
2023-02-04T13:18:16.140Z,16.13
2023-02-04T13:20:50.838Z,16.83
2023-02-04T13:23:24.122Z,17.67
2023-02-04T13:25:57.741Z,16.25
2023-02-04T13:28:24.570Z,14.63
2023-02-04T13:30:57.834Z,24.42
2023-02-04T13:33:24.517Z,19.55
2023-02-04T13:35:57.794Z,16.55
2023-02-04T13:38:31.798Z,19.08
2023-02-04T13:40:58.573Z,17.25
2023-02-04T13:43:31.761Z,15.95
2023-02-04T13:46:05.958Z,20.20
2023-02-04T13:48:39.763Z,12.77
2023-02-04T13:51:06.789Z,20.08
2023-02-04T13:53:39.779Z,16.98
2023-02-04T13:56:06.736Z,17.92
2023-02-04T13:58:39.857Z,11.52
2023-02-04T14:01:06.567Z,16.00
2023-02-04T14:03:39.707Z,13.88
2023-02-04T14:06:13.806Z,13.50
2023-02-04T14:08:46.955Z,15.40
2023-02-04T14:11:20.755Z,12.45
2023-02-04T14:13:47.537Z,14.20
2023-02-04T14:16:20.810Z,17.50
2023-02-04T14:18:47.545Z,15.63
2023-02-04T14:21:27.787Z,18.15
2023-02-04T14:24:01.670Z,14.93
2023-02-04T14:26:37.744Z,12.02
2023-02-04T14:29:04.770Z,13.30
2023-02-04T14:31:37.880Z,11.90
2023-02-04T14:34:04.926Z,15.50
2023-02-04T14:36:40.868Z,20.20
2023-02-04T14:39:13.867Z,15.93
2023-02-04T14:41:40.725Z,22.60
2023-02-04T14:44:13.776Z,12.65
2023-02-04T14:46:41.458Z,17.90
2023-02-04T14:49:14.858Z,13.57
2023-02-04T14:51:48.880Z,19.50
2023-02-04T14:54:22.804Z,13.77
2023-02-04T14:56:50.630Z,14.05
2023-02-04T14:59:23.840Z,16.23
2023-02-04T15:01:50.570Z,12.63
2023-02-04T15:04:24.814Z,15.57
2023-02-04T15:07:00.848Z,18.25
2023-02-04T15:09:27.741Z,14.52
2023-02-04T15:12:01.840Z,12.55
2023-02-04T15:14:28.762Z,13.55
2023-02-04T15:17:01.975Z,14.05
2023-02-04T15:19:28.798Z,15.68
2023-02-04T15:22:01.882Z,18.60
2023-02-04T15:24:34.984Z,16.63
2023-02-04T15:27:08.812Z,13.60
2023-02-04T15:29:35.692Z,16.73
2023-02-04T15:32:10.670Z,16.52
2023-02-04T15:34:43.853Z,12.00
2023-02-04T15:37:17.784Z,17.95
2023-02-04T15:39:44.588Z,15.93
2023-02-04T15:42:11.286Z,13.95
2023-02-04T15:44:47.835Z,14.50
2023-02-04T15:47:14.554Z,14.00
2023-02-04T15:49:47.856Z,11.98
2023-02-04T15:52:24.244Z,12.90
2023-02-04T15:54:58.972Z,12.60
2023-02-04T15:57:25.827Z,12.98
2023-02-04T15:59:58.865Z,13.00
2023-02-04T16:02:25.715Z,12.88
2023-02-04T16:04:52.484Z,9.85
2023-02-04T16:07:25.806Z,8.43
2023-02-04T16:09:52.556Z,13.40
2023-02-04T16:12:25.902Z,11.43
2023-02-04T16:14:52.672Z,12.65
2023-02-04T16:17:25.862Z,10.07
2023-02-04T16:19:58.791Z,12.77
2023-02-04T16:22:31.838Z,8.98
2023-02-04T16:24:58.543Z,13.60
2023-02-04T16:27:33.886Z,16.35
2023-02-04T16:30:01.064Z,10.15
2023-02-04T16:32:34.784Z,11.68
2023-02-04T16:35:02.548Z,13.85
2023-02-04T16:37:29.424Z,13.25
2023-02-04T16:40:02.950Z,12.00
2023-02-04T16:42:31.298Z,14.18
2023-02-04T16:45:04.835Z,15.07
2023-02-04T16:47:31.786Z,11.88
2023-02-04T16:50:07.972Z,18.02
2023-02-04T16:52:34.804Z,17.38
2023-02-04T16:55:07.898Z,14.57
2023-02-04T16:57:34.611Z,16.13
2023-02-04T17:00:07.828Z,12.63
2023-02-04T17:02:37.412Z,8.20
2023-02-04T17:05:25.911Z,11.63
2023-02-04T17:07:59.809Z,9.93
2023-02-04T17:10:51.846Z,11.32
2023-02-04T17:13:18.893Z,11.60
2023-02-04T17:15:51.773Z,11.35
2023-02-04T17:18:24.948Z,10.60
2023-02-04T17:20:59.066Z,11.93
2023-02-04T17:23:39.898Z,11.50
2023-02-04T17:26:13.507Z,8.73
2023-02-04T17:28:46.918Z,13.15
2023-02-04T17:31:13.803Z,9.60
2023-02-04T17:33:46.857Z,12.68
2023-02-04T17:36:15.349Z,9.98
2023-02-04T17:38:48.964Z,13.35
2023-02-04T17:41:21.901Z,12.27
2023-02-04T17:43:54.930Z,8.93
2023-02-04T17:46:21.910Z,11.38
2023-02-04T17:48:54.988Z,10.30
2023-02-04T17:51:21.718Z,8.93
2023-02-04T17:53:55.005Z,11.80
2023-02-04T17:56:27.885Z,10.68
2023-02-04T17:58:56.314Z,10.55
2023-02-04T18:01:32.127Z,8.43
2023-02-04T18:03:59.113Z,10.57
2023-02-04T18:06:36.375Z,10.68
2023-02-04T18:09:12.249Z,9.82
2023-02-04T18:11:46.848Z,9.05
2023-02-04T18:14:21.809Z,8.68
2023-02-04T18:16:55.924Z,10.20
2023-02-04T18:19:29.083Z,9.00
2023-02-04T18:22:04.878Z,8.90
2023-02-04T18:24:45.089Z,10.30
2023-02-04T18:27:36.037Z,9.48
2023-02-04T18:30:06.892Z,7.82
2023-02-04T18:32:46.881Z,9.52
2023-02-04T18:35:36.934Z,7.60
2023-02-04T18:38:26.873Z,10.77
2023-02-04T18:41:01.324Z,11.45
2023-02-04T18:43:38.854Z,8.45
2023-02-04T18:46:21.866Z,11.05
2023-02-04T18:49:22.903Z,11.25
2023-02-04T18:51:56.865Z,10.05
2023-02-04T18:54:40.820Z,9.75
2023-02-04T18:57:13.576Z,10.52
2023-02-04T18:59:47.912Z,11.50
2023-02-04T19:02:33.467Z,15.75
2023-02-04T19:05:13.527Z,9.73
2023-02-04T19:07:40.580Z,12.23
2023-02-04T19:10:37.947Z,14.13
2023-02-04T19:13:25.987Z,12.38
2023-02-04T19:16:05.960Z,13.57
2023-02-04T19:18:45.923Z,9.40
2023-02-04T19:21:40.965Z,10.05
2023-02-04T19:24:33.376Z,10.63
2023-02-04T19:27:08.926Z,12.77
2023-02-04T19:29:39.352Z,14.82
2023-02-04T19:32:31.075Z,14.05
2023-02-04T19:35:06.958Z,18.40
2023-02-04T19:37:47.989Z,18.35
2023-02-04T19:40:24.347Z,22.23
2023-02-04T19:43:00.917Z,19.08
2023-02-04T19:45:27.614Z,12.95
2023-02-04T19:47:56.861Z,10.93
2023-02-04T19:50:39.103Z,11.32
2023-02-04T19:53:14.875Z,12.30
2023-02-04T19:55:50.567Z,10.50
2023-02-04T19:58:28.930Z,11.48
2023-02-04T20:01:03.744Z,14.15
2023-02-04T20:03:48.861Z,13.48
2023-02-04T20:06:49.935Z,16.10
2023-02-04T20:09:29.690Z,13.20
2023-02-04T20:12:05.976Z,10.88
2023-02-04T20:14:45.017Z,14.13
2023-02-04T20:17:27.019Z,11.32
2023-02-04T20:19:59.919Z,14.10
2023-02-04T20:22:51.046Z,14.18
2023-02-04T20:25:47.033Z,12.57
2023-02-04T20:28:46.836Z,9.77
2023-02-04T20:31:36.176Z,13.98
2023-02-04T20:34:02.868Z,12.88
2023-02-04T20:36:44.949Z,11.65
2023-02-04T20:39:24.026Z,11.75
2023-02-04T20:41:56.966Z,15.70
2023-02-04T20:44:40.050Z,14.45
2023-02-04T20:47:21.941Z,13.93
2023-02-04T20:49:57.268Z,11.23
2023-02-04T20:52:49.993Z,13.23
2023-02-04T20:55:34.474Z,11.32
2023-02-04T20:58:16.149Z,10.20
2023-02-04T21:00:50.965Z,15.27
2023-02-04T21:03:41.988Z,12.73
2023-02-04T21:06:30.919Z,9.48
2023-02-04T21:08:58.998Z,13.18
2023-02-04T21:11:32.914Z,11.38
2023-02-04T21:14:06.098Z,18.65
2023-02-04T21:16:32.919Z,18.70
2023-02-04T21:19:06.046Z,25.65
2023-02-04T21:21:32.933Z,21.02
2023-02-04T21:24:05.978Z,11.82
2023-02-04T21:26:39.121Z,14.27
2023-02-04T21:29:13.064Z,14.32
2023-02-04T21:31:40.226Z,11.07
2023-02-04T21:34:14.024Z,11.30
2023-02-04T21:36:40.948Z,15.48
2023-02-04T21:39:07.860Z,12.07
2023-02-04T21:41:41.003Z,11.90
2023-02-04T21:44:07.776Z,12.63
2023-02-04T21:46:41.115Z,11.82
2023-02-04T21:49:10.953Z,17.10
2023-02-04T21:51:37.698Z,11.60
2023-02-04T21:54:11.960Z,10.48
2023-02-04T21:56:46.078Z,9.60
2023-02-04T21:59:14.334Z,12.10
2023-02-04T22:01:48.106Z,13.38
2023-02-04T22:04:14.804Z,12.20
2023-02-04T22:06:47.967Z,16.70
2023-02-04T22:09:23.029Z,12.20
2023-02-04T22:11:56.007Z,14.23
2023-02-04T22:14:28.958Z,17.20
2023-02-04T22:16:55.865Z,14.68
2023-02-04T22:19:28.943Z,12.85
2023-02-04T22:22:02.098Z,20.58
2023-02-04T22:24:42.020Z,19.73
2023-02-04T22:27:15.069Z,16.10
2023-02-04T22:29:41.792Z,16.88
2023-02-04T22:32:15.025Z,16.27
2023-02-04T22:34:41.935Z,15.73
2023-02-04T22:37:15.066Z,13.55
2023-02-04T22:39:42.395Z,13.48
2023-02-04T22:42:16.095Z,13.20
2023-02-04T22:44:43.109Z,12.88
2023-02-04T22:47:16.223Z,14.10
2023-02-04T22:49:50.041Z,15.60
2023-02-04T22:52:23.026Z,13.30
2023-02-04T22:54:49.760Z,15.37
2023-02-04T22:57:23.069Z,13.02
2023-02-04T22:59:49.804Z,16.13
2023-02-04T23:02:22.980Z,12.98
2023-02-04T23:04:56.597Z,11.60
2023-02-04T23:07:30.063Z,14.40
2023-02-04T23:09:57.043Z,13.17
2023-02-04T23:12:24.265Z,16.03
2023-02-04T23:14:58.173Z,14.30
2023-02-04T23:17:24.797Z,12.43
2023-02-04T23:19:58.040Z,14.40
2023-02-04T23:22:24.861Z,12.87
2023-02-04T23:25:06.538Z,12.83
2023-02-04T23:27:33.677Z,14.07
2023-02-04T23:30:07.102Z,16.17
2023-02-04T23:32:33.805Z,12.37
2023-02-04T23:35:07.004Z,14.33
2023-02-04T23:37:34.622Z,15.33
2023-02-04T23:40:08.078Z,16.13
2023-02-04T23:42:41.030Z,17.93
2023-02-04T23:45:15.102Z,12.47
2023-02-04T23:47:47.985Z,13.73
2023-02-04T23:50:14.818Z,14.87
2023-02-04T23:52:47.984Z,13.77
2023-02-04T23:55:21.108Z,14.07
2023-02-04T23:57:57.166Z,12.27
